Time;durP1;ratioP1;P1;durP2;ratioP2;P2;SDS_P1;SDS_P2;PMS_P1;PMS_P2;Temp;Humidity;BMP_temperature;BMP_pressure;BME280_temperature;BME280_humidity;BME280_pressure;Samples;Min_cycle;Max_cycle;Signal;HPM_P1;HPM_P2
2022/03/22 00:01:41;;;;;;;12.90;6.17;;;12.20;39.50;;;;;;5067167;28;20690;-76
2022/03/22 00:04:10;;;;;;;11.50;6.40;;;12.10;39.40;;;;;;5062086;28;20210;-77
2022/03/22 00:06:38;;;;;;;12.37;6.30;;;12.20;40.10;;;;;;5061704;28;20577;-76
2022/03/22 00:09:07;;;;;;;10.17;5.90;;;12.20;39.50;;;;;;5063178;28;20312;-76
2022/03/22 00:11:36;;;;;;;11.90;5.77;;;12.20;39.50;;;;;;5068928;28;20198;-75
2022/03/22 00:14:08;;;;;;;12.37;6.47;;;12.10;39.50;;;;;;5074025;28;20198;-76
2022/03/22 00:16:37;;;;;;;12.70;5.90;;;12.10;39.50;;;;;;5070606;28;20225;-77
2022/03/22 00:19:26;;;;;;;12.93;6.37;;;12.20;39.60;;;;;;5065813;28;20198;-77
2022/03/22 00:21:54;;;;;;;14.33;6.30;;;12.10;39.60;;;;;;5064629;28;20202;-76
2022/03/22 00:24:23;;;;;;;10.40;6.17;;;12.10;39.60;;;;;;5065695;28;20202;-76
2022/03/22 00:26:51;;;;;;;13.70;6.63;;;12.10;39.70;;;;;;5060980;28;20217;-77
2022/03/22 00:29:21;;;;;;;14.73;6.17;;;12.10;39.70;;;;;;5063068;28;20783;-77
2022/03/22 00:31:49;;;;;;;13.90;6.57;;;12.10;39.80;;;;;;5064596;28;20450;-76
2022/03/22 00:34:18;;;;;;;14.47;6.27;;;12.10;39.80;;;;;;5066712;28;20740;-77
2022/03/22 00:36:49;;;;;;;12.97;6.30;;;12.00;39.80;;;;;;5066518;28;20193;-77
2022/03/22 00:39:18;;;;;;;12.23;6.13;;;12.00;39.90;;;;;;5065807;28;20198;-76
2022/03/22 00:41:47;;;;;;;13.43;6.50;;;12.00;40.00;;;;;;5064920;28;20940;-77
2022/03/22 00:44:15;;;;;;;11.53;6.07;;;12.00;40.10;;;;;;5065936;28;20237;-77
2022/03/22 00:46:45;;;;;;;13.23;5.67;;;11.90;40.30;;;;;;5065536;28;20217;-76
2022/03/22 00:49:14;;;;;;;15.50;7.00;;;11.90;40.30;;;;;;5067875;28;20210;-76
2022/03/22 00:51:42;;;;;;;15.07;6.53;;;11.80;40.50;;;;;;5063821;28;20204;-76
2022/03/22 00:54:11;;;;;;;14.53;7.00;;;11.80;40.80;;;;;;5064748;28;20233;-77
2022/03/22 00:56:39;;;;;;;15.67;6.57;;;11.80;40.70;;;;;;5064061;28;20194;-77
2022/03/22 01:01:55;;;;;;;12.13;6.23;;;11.70;40.90;;;;;;5064377;28;21244;-77
2022/03/22 01:04:24;;;;;;;12.97;6.90;;;11.70;41.00;;;;;;5063896;28;20709;-77
2022/03/22 01:06:53;;;;;;;15.40;6.73;;;11.70;41.20;;;;;;5065557;28;20225;-77
2022/03/22 01:09:21;;;;;;;19.90;7.20;;;11.60;41.20;;;;;;5066907;28;20193;-77
2022/03/22 01:11:49;;;;;;;12.73;7.03;;;11.60;41.20;;;;;;5063930;28;20678;-76
2022/03/22 01:14:18;;;;;;;13.37;6.77;;;11.60;41.30;;;;;;5072092;28;20202;-77
2022/03/22 01:16:46;;;;;;;17.57;6.83;;;11.60;41.40;;;;;;5072420;28;20182;-76
2022/03/22 01:19:16;;;;;;;14.37;6.93;;;11.60;41.70;;;;;;5066748;28;20198;-76
2022/03/22 01:21:45;;;;;;;14.20;7.10;;;11.50;41.60;;;;;;5066779;28;20728;-76
2022/03/22 01:24:13;;;;;;;15.37;7.33;;;11.50;41.60;;;;;;5064060;28;20206;-76
2022/03/22 01:26:42;;;;;;;16.40;7.27;;;11.50;41.70;;;;;;5063608;28;20835;-76
2022/03/22 01:29:11;;;;;;;17.43;7.07;;;11.40;41.80;;;;;;5066163;28;20201;-77
2022/03/22 01:31:39;;;;;;;13.30;6.83;;;11.40;41.80;;;;;;5066101;28;20567;-76
2022/03/22 01:34:08;;;;;;;14.33;6.33;;;11.40;41.90;;;;;;5066938;28;20201;-76
2022/03/22 01:36:38;;;;;;;13.07;6.47;;;11.40;42.20;;;;;;5064021;28;20194;-76
2022/03/22 01:39:06;;;;;;;18.40;7.63;;;11.30;42.20;;;;;;5063447;28;20198;-76
2022/03/22 01:41:35;;;;;;;15.50;6.53;;;11.20;42.60;;;;;;5066172;28;20331;-77
2022/03/22 01:44:03;;;;;;;14.03;7.00;;;11.20;42.80;;;;;;5066421;28;20244;-77
2022/03/22 01:46:38;;;;;;;17.10;6.70;;;11.10;42.90;;;;;;5068219;28;20867;-76
2022/03/22 01:49:06;;;;;;;14.60;7.30;;;11.10;42.80;;;;;;5063167;28;20283;-76
2022/03/22 01:51:35;;;;;;;16.10;7.10;;;11.10;43.10;;;;;;5067825;28;20212;-76
2022/03/22 01:54:05;;;;;;;12.13;6.50;;;11.00;43.10;;;;;;5066550;28;20212;-76
2022/03/22 01:56:34;;;;;;;12.80;6.60;;;11.00;43.20;;;;;;5063392;28;20190;-76
2022/03/22 01:59:02;;;;;;;14.00;6.97;;;10.90;43.20;;;;;;5063957;28;20681;-76
2022/03/22 02:07:04;;;;;;;13.03;6.63;;;10.90;43.40;;;;;;5064387;28;20302;-77
2022/03/22 02:09:34;;;;;;;13.23;6.20;;;10.80;43.60;;;;;;5063523;28;20197;-76
2022/03/22 02:12:02;;;;;;;12.10;6.17;;;10.80;43.60;;;;;;5063654;28;20228;-76
2022/03/22 02:14:31;;;;;;;12.57;6.27;;;10.70;44.40;;;;;;5064767;28;20215;-76
2022/03/22 02:16:59;;;;;;;12.43;6.10;;;10.80;43.90;;;;;;5065905;28;20213;-75
2022/03/22 02:19:28;;;;;;;15.10;5.97;;;10.70;43.80;;;;;;5062813;28;20765;-76
2022/03/22 02:22:02;;;;;;;18.90;6.37;;;10.70;43.90;;;;;;5061660;28;20204;-76
2022/03/22 02:24:32;;;;;;;14.53;6.93;;;10.70;43.80;;;;;;5063994;28;20204;-77
2022/03/22 02:27:00;;;;;;;17.97;7.30;;;10.70;43.70;;;;;;5065953;28;20246;-75
2022/03/22 02:29:29;;;;;;;13.83;7.00;;;10.70;43.70;;;;;;5061602;28;20229;-75
2022/03/22 02:31:57;;;;;;;14.13;6.37;;;10.70;43.70;;;;;;5066916;28;20211;-75
2022/03/22 02:34:26;;;;;;;15.13;6.20;;;10.70;43.90;;;;;;5062149;28;20620;-76
2022/03/22 02:36:54;;;;;;;13.37;6.03;;;10.70;43.90;;;;;;5062569;28;20606;-76
2022/03/22 02:39:22;;;;;;;13.30;6.93;;;10.60;44.00;;;;;;5063115;28;20209;-76
2022/03/22 02:41:52;;;;;;;14.10;6.27;;;10.60;43.90;;;;;;5073378;28;20209;-76
2022/03/22 02:44:21;;;;;;;11.07;6.03;;;10.60;44.00;;;;;;5066232;28;20252;-77
2022/03/22 02:46:50;;;;;;;15.07;6.80;;;10.60;44.00;;;;;;5066629;28;20224;-76
2022/03/22 02:49:19;;;;;;;14.50;6.47;;;10.60;44.20;;;;;;5062821;28;20227;-77
2022/03/22 02:51:47;;;;;;;13.53;6.03;;;10.60;44.20;;;;;;5064347;28;20684;-76
2022/03/22 02:54:16;;;;;;;15.27;7.10;;;10.50;44.30;;;;;;5063654;28;20211;-76
2022/03/22 02:56:44;;;;;;;15.97;6.50;;;10.50;44.50;;;;;;5012554;28;20197;-76
2022/03/22 02:59:14;;;;;;;14.07;7.07;;;10.40;44.60;;;;;;5065206;28;21306;-77
2022/03/22 03:01:42;;;;;;;14.93;6.97;;;10.40;44.70;;;;;;5066192;28;20223;-76
2022/03/22 03:04:11;;;;;;;14.47;7.33;;;10.40;44.70;;;;;;5062647;28;20230;-77
2022/03/22 03:06:39;;;;;;;16.53;6.33;;;10.30;44.70;;;;;;5060124;28;20212;-77
2022/03/22 03:09:10;;;;;;;18.07;7.10;;;10.30;44.80;;;;;;5065490;28;20286;-77
2022/03/22 03:11:39;;;;;;;11.53;5.97;;;10.30;45.00;;;;;;5062633;28;20206;-76
2022/03/22 03:16:55;;;;;;;18.17;7.90;;;10.20;45.20;;;;;;5063397;28;20204;-76
2022/03/22 03:19:23;;;;;;;18.93;8.13;;;10.20;45.20;;;;;;5064881;28;20287;-75
2022/03/22 03:21:51;;;;;;;18.57;7.63;;;10.10;45.30;;;;;;5062275;28;20201;-76
2022/03/22 03:24:20;;;;;;;16.43;7.63;;;10.10;45.30;;;;;;5064511;28;20658;-77
2022/03/22 03:26:48;;;;;;;15.00;7.27;;;10.10;45.30;;;;;;5062798;28;20192;-77
2022/03/22 03:29:17;;;;;;;17.53;7.53;;;10.00;45.30;;;;;;5061788;28;20797;-78
2022/03/22 03:31:45;;;;;;;17.37;8.13;;;10.00;45.40;;;;;;5065529;28;20202;-76
2022/03/22 03:34:15;;;;;;;18.47;7.27;;;10.00;45.70;;;;;;5063807;28;20205;-77
2022/03/22 03:36:44;;;;;;;16.93;7.43;;;9.90;45.60;;;;;;5062878;28;20190;-76
2022/03/22 03:39:12;;;;;;;28.57;7.90;;;9.90;45.70;;;;;;5061237;28;20475;-76
2022/03/22 03:41:56;;;;;;;19.97;8.60;;;9.90;45.80;;;;;;5064630;28;20867;-76
2022/03/22 03:47:14;;;;;;;18.37;8.00;;;9.80;46.20;;;;;;5063456;28;20213;-76
2022/03/22 03:49:45;;;;;;;18.80;7.63;;;9.80;46.10;;;;;;5066523;28;20205;-76
2022/03/22 03:52:15;;;;;;;20.17;7.27;;;9.70;46.30;;;;;;5066011;28;20198;-76
2022/03/22 03:54:45;;;;;;;20.83;7.37;;;9.70;46.50;;;;;;5070625;28;20202;-76
2022/03/22 03:57:14;;;;;;;18.80;7.23;;;9.70;46.60;;;;;;5066167;28;20206;-74
2022/03/22 03:59:43;;;;;;;19.33;8.47;;;9.60;47.00;;;;;;5067262;28;20197;-76
2022/03/22 04:02:12;;;;;;;15.93;7.33;;;9.60;47.10;;;;;;5061357;28;20211;-75
2022/03/22 04:04:43;;;;;;;17.40;7.33;;;9.60;47.30;;;;;;5065393;28;20618;-75
2022/03/22 04:07:12;;;;;;;15.90;7.90;;;9.60;47.70;;;;;;5066367;28;20210;-76
2022/03/22 04:09:42;;;;;;;11.37;7.10;;;9.60;47.60;;;;;;5067297;28;20292;-76
2022/03/22 04:12:12;;;;;;;13.27;7.00;;;9.60;47.60;;;;;;5066724;28;20201;-77
2022/03/22 04:14:40;;;;;;;16.40;7.23;;;9.60;48.00;;;;;;5064810;28;20249;-76
2022/03/22 04:17:08;;;;;;;17.20;7.40;;;9.60;48.20;;;;;;5066388;28;20222;-76
2022/03/22 04:19:37;;;;;;;12.40;7.10;;;9.60;48.20;;;;;;5069910;28;20759;-75
2022/03/22 04:22:08;;;;;;;15.00;7.13;;;9.60;48.60;;;;;;5068077;28;20202;-76
2022/03/22 04:24:36;;;;;;;14.50;6.90;;;9.60;48.50;;;;;;5067134;28;20294;-75
2022/03/22 04:32:48;;;;;;;15.63;6.80;;;9.60;49.00;;;;;;4987730;28;20246;-77
2022/03/22 04:35:19;;;;;;;14.80;7.10;;;9.60;48.90;;;;;;5048799;28;21670;-77
2022/03/22 04:37:50;;;;;;;17.07;6.67;;;9.60;49.10;;;;;;5065380;28;20198;-78
2022/03/22 04:40:19;;;;;;;12.57;6.30;;;9.60;49.10;;;;;;5065922;28;20911;-78
2022/03/22 04:42:48;;;;;;;15.87;6.80;;;9.70;49.00;;;;;;5066769;28;20678;-76
2022/03/22 04:45:16;;;;;;;16.30;6.53;;;9.70;49.00;;;;;;5063661;28;20198;-77
2022/03/22 04:47:45;;;;;;;15.10;7.27;;;9.70;48.70;;;;;;5065938;28;21672;-77
2022/03/22 04:50:15;;;;;;;19.50;6.70;;;9.70;48.70;;;;;;5067631;28;21145;-77
2022/03/22 04:58:19;;;;;;;25.20;8.33;;;9.80;48.60;;;;;;5077784;28;20195;-76
2022/03/22 05:00:48;;;;;;;23.93;9.13;;;9.80;48.60;;;;;;5076671;28;20203;-77
2022/03/22 05:03:17;;;;;;;22.30;8.77;;;9.80;48.60;;;;;;5076180;28;20253;-76
2022/03/22 05:08:32;;;;;;;17.93;8.17;;;9.80;48.60;;;;;;5077281;28;20216;-75
2022/03/22 05:11:02;;;;;;;22.37;8.33;;;9.80;48.70;;;;;;5076563;28;20565;-77
2022/03/22 05:13:30;;;;;;;21.90;8.20;;;9.90;48.80;;;;;;5076270;28;20706;-77
2022/03/22 05:15:59;;;;;;;16.90;7.73;;;9.90;49.00;;;;;;5076650;28;20210;-76
2022/03/22 05:18:27;;;;;;;29.47;9.07;;;9.90;48.90;;;;;;5075492;28;20824;-76
2022/03/22 05:20:57;;;;;;;18.97;8.07;;;10.00;49.30;;;;;;5076367;28;20197;-77
2022/03/22 05:23:30;;;;;;;21.27;8.57;;;10.00;49.20;;;;;;5076217;28;20189;-78
2022/03/22 05:25:59;;;;;;;21.90;8.60;;;10.00;49.40;;;;;;5074407;28;20197;-77
2022/03/22 05:28:28;;;;;;;19.93;7.90;;;10.10;49.50;;;;;;5075702;28;20224;-77
2022/03/22 05:30:58;;;;;;;20.77;8.00;;;10.10;49.50;;;;;;5075209;28;20207;-76
2022/03/22 05:33:26;;;;;;;19.87;8.17;;;10.20;49.80;;;;;;5075893;28;20613;-76
2022/03/22 05:35:54;;;;;;;21.40;8.70;;;10.20;50.00;;;;;;5075425;28;20212;-76
2022/03/22 05:38:25;;;;;;;16.57;7.30;;;10.30;49.90;;;;;;5073195;28;20564;-76
2022/03/22 05:40:54;;;;;;;19.13;7.60;;;10.40;49.90;;;;;;5075711;28;20197;-76
2022/03/22 05:43:22;;;;;;;18.27;8.30;;;10.40;50.20;;;;;;5076772;28;20247;-76
2022/03/22 05:45:52;;;;;;;19.10;8.53;;;10.40;50.00;;;;;;5075857;28;20219;-76
2022/03/22 05:48:22;;;;;;;18.30;8.30;;;10.50;50.80;;;;;;5074041;28;20217;-76
2022/03/22 05:50:51;;;;;;;19.33;9.00;;;10.60;50.20;;;;;;5073923;28;20205;-76
2022/03/22 05:53:19;;;;;;;14.53;7.07;;;10.60;50.10;;;;;;5075813;28;20561;-76
2022/03/22 05:55:47;;;;;;;22.20;7.87;;;10.70;50.30;;;;;;5075405;28;20205;-77
2022/03/22 05:58:16;;;;;;;22.40;8.00;;;10.80;50.20;;;;;;5072870;28;20208;-77
2022/03/22 06:00:44;;;;;;;24.27;8.67;;;10.90;50.20;;;;;;5075633;28;20224;-77
2022/03/22 06:03:14;;;;;;;17.33;7.93;;;10.90;50.20;;;;;;5074729;28;20766;-77
2022/03/22 06:05:43;;;;;;;14.20;7.20;;;11.00;50.50;;;;;;5074721;28;20655;-76
2022/03/22 06:08:12;;;;;;;16.47;8.17;;;11.10;50.60;;;;;;5074309;28;20198;-76
2022/03/22 06:10:40;;;;;;;17.10;8.37;;;11.10;50.60;;;;;;5075864;28;20241;-76
2022/03/22 06:13:08;;;;;;;15.67;7.73;;;11.20;50.40;;;;;;5075977;28;20197;-75
2022/03/22 06:15:37;;;;;;;21.17;7.93;;;11.30;50.60;;;;;;5074680;28;20209;-75
2022/03/22 06:18:09;;;;;;;12.90;7.07;;;11.30;50.80;;;;;;5074845;28;20194;-76
2022/03/22 06:20:41;;;;;;;13.57;6.50;;;11.50;50.60;;;;;;5075098;28;20808;-76
2022/03/22 06:23:11;;;;;;;14.13;5.67;;;11.60;51.20;;;;;;5073413;28;20686;-76
2022/03/22 06:25:41;;;;;;;11.10;5.27;;;11.70;51.30;;;;;;5074179;28;20702;-76
2022/03/22 06:28:10;;;;;;;12.50;5.97;;;11.70;51.50;;;;;;5072486;28;20285;-77
2022/03/22 06:30:39;;;;;;;18.07;6.37;;;11.80;51.30;;;;;;5071779;28;20872;-79
2022/03/22 06:33:12;;;;;;;15.13;6.37;;;11.90;51.70;;;;;;5075608;28;20212;-75
2022/03/22 06:35:44;;;;;;;17.53;6.47;;;12.10;51.70;;;;;;5074539;28;20197;-77
2022/03/22 06:38:13;;;;;;;15.50;5.60;;;12.20;51.60;;;;;;5076341;28;20185;-76
2022/03/22 06:40:41;;;;;;;13.70;5.53;;;12.30;51.50;;;;;;5073423;28;20213;-76
2022/03/22 06:43:12;;;;;;;13.27;5.87;;;12.40;51.30;;;;;;5070985;28;20230;-77
2022/03/22 06:45:41;;;;;;;17.70;6.23;;;12.50;51.00;;;;;;5074611;28;20293;-79
2022/03/22 06:48:10;;;;;;;13.00;6.00;;;12.60;51.30;;;;;;5073388;28;20757;-76
2022/03/22 06:50:40;;;;;;;13.17;6.47;;;12.70;51.00;;;;;;5073386;28;20213;-75
2022/03/22 06:53:10;;;;;;;14.50;6.10;;;12.80;51.10;;;;;;5074652;28;20194;-76
2022/03/22 06:55:40;;;;;;;13.30;5.80;;;13.00;50.80;;;;;;5073879;28;20182;-75
2022/03/22 06:58:09;;;;;;;10.07;5.33;;;13.10;50.70;;;;;;5073446;28;20196;-75
2022/03/22 07:00:37;;;;;;;11.10;5.53;;;13.30;50.50;;;;;;5071388;28;20537;-76
2022/03/22 07:03:06;;;;;;;13.73;5.60;;;13.40;50.40;;;;;;5072954;28;20824;-76
2022/03/22 07:05:35;;;;;;;10.93;5.40;;;13.60;50.30;;;;;;5074332;28;20222;-76
2022/03/22 07:08:03;;;;;;;12.60;5.23;;;13.70;50.20;;;;;;5073615;28;20207;-76
2022/03/22 07:10:33;;;;;;;10.87;5.47;;;13.90;50.10;;;;;;5070254;28;20689;-76
2022/03/22 07:13:05;;;;;;;12.93;5.20;;;14.00;50.00;;;;;;5067589;28;20709;-78
2022/03/22 07:15:36;;;;;;;12.67;5.70;;;14.10;49.80;;;;;;5071941;28;21573;-77
2022/03/22 07:18:05;;;;;;;15.23;5.83;;;14.20;49.60;;;;;;5073695;28;20190;-77
2022/03/22 07:20:35;;;;;;;18.93;6.07;;;14.30;49.40;;;;;;5073951;28;20197;-77
2022/03/22 07:23:03;;;;;;;12.73;6.07;;;14.30;49.40;;;;;;5073820;28;20662;-75
2022/03/22 07:25:34;;;;;;;10.23;5.53;;;14.40;49.50;;;;;;5074772;28;20208;-75
2022/03/22 07:28:02;;;;;;;15.43;6.03;;;14.50;49.50;;;;;;5070298;28;20204;-75
2022/03/22 07:30:31;;;;;;;12.30;5.70;;;14.60;49.60;;;;;;5070660;28;20217;-76
2022/03/22 07:32:59;;;;;;;13.07;5.63;;;14.60;49.50;;;;;;5073621;28;20598;-75
2022/03/22 07:35:28;;;;;;;13.73;6.43;;;14.70;49.20;;;;;;5074758;28;20670;-76
2022/03/22 07:38:01;;;;;;;15.13;5.70;;;14.80;49.20;;;;;;5075387;28;20200;-77
2022/03/22 07:40:29;;;;;;;14.10;6.73;;;14.90;49.00;;;;;;5075845;28;20197;-77
2022/03/22 07:42:59;;;;;;;12.00;5.90;;;15.00;49.00;;;;;;5076325;28;20252;-75
2022/03/22 07:45:27;;;;;;;16.20;7.20;;;15.00;48.80;;;;;;5076648;28;20236;-76
2022/03/22 07:47:55;;;;;;;13.17;6.23;;;15.10;48.70;;;;;;5077690;28;20201;-76
2022/03/22 07:53:10;;;;;;;12.77;6.13;;;15.30;48.50;;;;;;5074909;28;20189;-75
2022/03/22 07:55:40;;;;;;;12.83;5.93;;;15.40;48.40;;;;;;5074994;28;20198;-75
2022/03/22 07:58:11;;;;;;;16.43;6.40;;;15.50;48.40;;;;;;5076345;28;20236;-76
2022/03/22 08:00:42;;;;;;;13.43;6.77;;;15.60;48.10;;;;;;5075416;28;20233;-76
2022/03/22 08:03:13;;;;;;;12.77;6.20;;;15.60;47.80;;;;;;5077943;28;20190;-74
2022/03/22 08:05:45;;;;;;;11.40;6.50;;;15.70;47.80;;;;;;5077398;28;20547;-74
2022/03/22 08:08:13;;;;;;;17.07;6.73;;;15.80;48.30;;;;;;5075022;28;20189;-75
2022/03/22 08:11:02;;;;;;;13.17;6.67;;;15.90;47.30;;;;;;5076760;28;20225;-78
2022/03/22 08:13:34;;;;;;;14.90;6.70;;;15.90;46.90;;;;;;5078247;28;20205;-76
2022/03/22 08:16:02;;;;;;;12.90;6.57;;;16.00;47.00;;;;;;5079593;28;20844;-75
2022/03/22 08:18:31;;;;;;;16.47;6.33;;;16.10;46.30;;;;;;5073265;28;20229;-75
2022/03/22 08:20:59;;;;;;;16.23;6.23;;;16.10;46.00;;;;;;5076203;28;20220;-75
2022/03/22 08:23:28;;;;;;;18.77;5.77;;;16.20;46.00;;;;;;5076414;28;20201;-76
2022/03/22 08:25:56;;;;;;;8.80;5.73;;;16.30;45.80;;;;;;5075900;28;20201;-76
2022/03/22 08:28:24;;;;;;;13.57;5.77;;;16.40;45.50;;;;;;5077128;28;20201;-75
2022/03/22 08:30:54;;;;;;;12.40;5.00;;;16.40;45.00;;;;;;5074636;28;20221;-77
2022/03/22 08:33:22;;;;;;;13.50;5.37;;;16.50;44.50;;;;;;5074841;28;20208;-77
2022/03/22 08:35:52;;;;;;;18.43;6.37;;;16.50;44.00;;;;;;5076109;28;20193;-77
2022/03/22 08:38:24;;;;;;;16.93;6.53;;;16.60;44.60;;;;;;5075474;28;20272;-75
2022/03/22 08:40:56;;;;;;;13.97;5.97;;;16.60;44.90;;;;;;5074787;28;21271;-76
2022/03/22 08:43:26;;;;;;;10.03;5.13;;;16.70;44.40;;;;;;5073864;28;20225;-78
2022/03/22 08:45:56;;;;;;;9.17;4.47;;;16.80;43.80;;;;;;5074193;28;20186;-75
2022/03/22 08:48:25;;;;;;;10.93;4.93;;;16.80;42.80;;;;;;5077162;28;20205;-78
2022/03/22 08:50:53;;;;;;;20.53;4.53;;;16.90;43.00;;;;;;5074627;28;20746;-76
2022/03/22 08:53:23;;;;;;;10.50;4.13;;;17.00;41.60;;;;;;5078084;28;20189;-76
2022/03/22 08:55:52;;;;;;;10.50;3.60;;;17.00;40.90;;;;;;5076170;28;20202;-76
2022/03/22 08:58:23;;;;;;;11.70;3.77;;;17.00;40.70;;;;;;5077849;28;20189;-77
2022/03/22 09:00:52;;;;;;;5.87;3.67;;;17.10;40.10;;;;;;5075105;28;20197;-75
2022/03/22 09:03:22;;;;;;;13.73;4.67;;;17.10;38.70;;;;;;5075073;28;20587;-75
2022/03/22 09:06:09;;;;;;;14.67;4.43;;;17.10;39.40;;;;;;5075693;28;21559;-75
2022/03/22 09:08:38;;;;;;;19.10;4.27;;;17.20;40.70;;;;;;5078179;28;20201;-76
2022/03/22 09:11:08;;;;;;;7.60;3.07;;;17.30;40.50;;;;;;5076908;28;22019;-74
2022/03/22 09:13:40;;;;;;;12.83;3.57;;;17.40;40.10;;;;;;5077135;28;20193;-76
2022/03/22 09:16:12;;;;;;;14.60;3.83;;;17.40;39.40;;;;;;5073905;28;20201;-75
2022/03/22 09:18:46;;;;;;;8.60;3.30;;;17.50;39.60;;;;;;5074929;28;20217;-76
2022/03/22 09:21:15;;;;;;;10.00;3.23;;;17.60;39.50;;;;;;5075582;28;20436;-75
2022/03/22 09:23:45;;;;;;;9.50;2.97;;;17.60;39.00;;;;;;5078577;28;20196;-78
2022/03/22 09:26:13;;;;;;;7.60;3.87;;;17.60;39.30;;;;;;5075456;28;20197;-77
2022/03/22 09:28:42;;;;;;;8.97;2.80;;;17.70;39.30;;;;;;5074992;28;20206;-75
2022/03/22 09:31:10;;;;;;;6.40;2.40;;;17.70;39.20;;;;;;5072428;28;20219;-77
2022/03/22 09:33:38;;;;;;;14.17;2.80;;;17.80;37.80;;;;;;5075824;28;20201;-77
2022/03/22 10:31:37;;;;;;;10.03;3.47;;;17.70;36.30;;;;;;5069516;27;20645;-76
2022/03/22 10:34:06;;;;;;;9.10;3.20;;;18.50;37.30;;;;;;5048123;28;21139;-78
2022/03/22 10:36:36;;;;;;;9.00;3.13;;;18.50;36.70;;;;;;5049186;28;20206;-77
2022/03/22 10:39:08;;;;;;;12.23;3.47;;;18.60;35.40;;;;;;5048396;28;20190;-75
2022/03/22 10:41:40;;;;;;;11.27;3.43;;;18.70;36.50;;;;;;5047165;28;20201;-78
2022/03/22 10:44:11;;;;;;;8.77;2.97;;;18.80;35.30;;;;;;5045693;28;20183;-77
2022/03/22 10:46:42;;;;;;;18.23;3.60;;;18.80;35.00;;;;;;5047025;28;20199;-76
2022/03/22 10:49:12;;;;;;;23.17;4.37;;;18.90;35.10;;;;;;5045627;28;20739;-76
2022/03/22 10:51:47;;;;;;;33.27;3.97;;;18.90;35.30;;;;;;5043920;28;20202;-78
2022/03/22 10:54:17;;;;;;;22.07;4.00;;;19.00;34.90;;;;;;5044000;28;20197;-80
2022/03/22 10:56:48;;;;;;;24.87;4.20;;;19.10;34.70;;;;;;5043987;28;20645;-79
2022/03/22 10:59:21;;;;;;;21.47;3.70;;;19.20;34.60;;;;;;5045726;28;20278;-77
2022/03/22 11:01:52;;;;;;;22.80;4.27;;;19.20;34.20;;;;;;5042532;28;20191;-80
2022/03/22 11:04:21;;;;;;;27.07;4.07;;;19.30;34.60;;;;;;5045507;28;20819;-78
2022/03/22 11:06:54;;;;;;;34.43;4.60;;;19.30;32.10;;;;;;5037983;28;20561;-79
2022/03/22 11:09:24;;;;;;;31.33;4.53;;;19.30;32.30;;;;;;5042685;28;20777;-78
2022/03/22 11:11:52;;;;;;;34.57;6.10;;;19.30;32.60;;;;;;5044855;28;20218;-79
2022/03/22 11:14:21;;;;;;;41.80;4.77;;;19.40;32.50;;;;;;5044831;28;20199;-78
2022/03/22 11:16:55;;;;;;;33.60;4.60;;;19.40;32.40;;;;;;5045156;28;20877;-76
2022/03/22 11:19:26;;;;;;;45.17;5.87;;;19.40;32.30;;;;;;5043248;28;20652;-75
2022/03/22 11:22:04;;;;;;;49.90;6.90;;;19.40;32.50;;;;;;5044399;28;20767;-77
2022/03/22 11:24:32;;;;;;;38.57;5.90;;;19.40;33.10;;;;;;5040871;28;20198;-74
2022/03/22 11:27:07;;;;;;;45.23;6.83;;;19.50;33.20;;;;;;5045203;28;20194;-75
2022/03/22 11:29:37;;;;;;;41.43;5.70;;;19.50;32.70;;;;;;5038640;28;20605;-77
2022/03/22 11:34:56;;;;;;;27.37;4.97;;;19.30;33.50;;;;;;5025924;28;20215;-77
2022/03/22 11:37:32;;;;;;;27.37;6.83;;;19.40;33.70;;;;;;5030314;28;20192;-77
2022/03/22 11:42:55;;;;;;;31.73;5.80;;;19.40;34.40;;;;;;5030687;28;20188;-76
2022/03/22 11:45:25;;;;;;;30.50;6.17;;;19.30;34.40;;;;;;5032756;28;20198;-76
2022/03/22 11:47:55;;;;;;;24.50;5.77;;;19.30;35.10;;;;;;5030118;28;20849;-76
2022/03/22 11:50:24;;;;;;;36.93;6.20;;;19.30;35.30;;;;;;5029342;28;20220;-76
2022/03/22 11:53:01;;;;;;;45.27;5.83;;;19.30;35.20;;;;;;5030803;28;20199;-77
2022/03/22 11:55:30;;;;;;;34.03;5.70;;;19.20;35.20;;;;;;5031818;28;20208;-78
2022/03/22 11:58:04;;;;;;;33.13;6.70;;;19.20;34.20;;;;;;5029749;28;20835;-77
2022/03/22 12:00:45;;;;;;;52.03;6.50;;;19.30;34.50;;;;;;5031012;28;20195;-78
2022/03/22 12:21:49;;;;;;;32.80;6.40;;;19.30;34.20;;;;;;5037562;28;20676;-78
2022/03/22 12:24:17;;;;;;;55.93;6.93;;;19.80;34.20;;;;;;5027388;28;20316;-78
2022/03/22 12:26:46;;;;;;;46.20;6.53;;;19.80;33.30;;;;;;5026715;28;20652;-78
2022/03/22 12:29:15;;;;;;;43.53;5.90;;;19.80;33.40;;;;;;5025398;28;20595;-78
2022/03/22 12:31:48;;;;;;;37.20;5.47;;;20.00;33.50;;;;;;5026735;28;20192;-77
2022/03/22 12:34:18;;;;;;;34.07;5.03;;;20.00;32.70;;;;;;5026136;28;20226;-77
2022/03/22 12:36:48;;;;;;;50.17;6.53;;;20.00;32.00;;;;;;5026254;28;20191;-75
2022/03/22 12:39:17;;;;;;;40.10;5.03;;;19.90;32.10;;;;;;5026940;28;21141;-79
2022/03/22 12:41:46;;;;;;;29.83;5.73;;;19.90;32.40;;;;;;5026675;28;20195;-78
2022/03/22 12:44:15;;;;;;;42.73;6.97;;;19.90;32.70;;;;;;5028872;28;21142;-76
2022/03/22 12:46:44;;;;;;;40.03;5.73;;;19.90;32.40;;;;;;5027156;28;20197;-78
2022/03/22 12:49:17;;;;;;;42.80;5.40;;;19.90;32.50;;;;;;5026839;28;20615;-77
2022/03/22 12:51:46;;;;;;;34.77;5.23;;;19.90;32.30;;;;;;5023540;28;20215;-77
2022/03/22 12:54:17;;;;;;;43.50;5.33;;;19.90;32.50;;;;;;5025252;28;20196;-75
2022/03/22 12:56:49;;;;;;;50.93;7.33;;;19.90;32.70;;;;;;5027241;28;20191;-77
2022/03/22 12:59:25;;;;;;;56.87;7.33;;;20.00;32.80;;;;;;5027459;28;20648;-78
2022/03/22 13:01:57;;;;;;;62.77;6.43;;;20.00;32.40;;;;;;5025945;28;20192;-76
2022/03/22 13:04:29;;;;;;;47.90;6.83;;;20.00;32.30;;;;;;5028047;28;20187;-78
2022/03/22 13:07:04;;;;;;;43.63;6.40;;;20.10;32.90;;;;;;5027080;28;20251;-76
2022/03/22 13:12:25;;;;;;;42.87;5.23;;;20.20;33.20;;;;;;5025054;28;20772;-77
2022/03/22 13:15:06;;;;;;;30.83;5.13;;;20.50;33.50;;;;;;5025748;28;20203;-76
2022/03/22 13:21:30;;;;;;;40.40;5.75;;;20.90;32.80;;;;;;4967302;28;21945;-77
2022/03/22 13:24:03;;;;;;;32.80;5.07;;;21.00;32.70;;;;;;5033192;28;20290;-77
2022/03/22 13:26:33;;;;;;;37.88;5.60;;;21.20;32.50;;;;;;5034653;28;20205;-76
2022/03/22 13:29:15;;;;;;;38.67;4.90;;;21.30;32.00;;;;;;5034526;28;20220;-78
2022/03/22 13:32:02;;;;;;;37.55;5.35;;;21.50;31.60;;;;;;5031752;28;20604;-78
2022/03/22 13:34:34;;;;;;;41.80;4.15;;;21.70;31.40;;;;;;5035959;28;20195;-78
2022/03/22 13:37:12;;;;;;;33.15;5.35;;;21.90;31.20;;;;;;5035861;28;20674;-77
2022/03/22 13:39:42;;;;;;;36.85;4.22;;;22.10;30.80;;;;;;5034087;28;20194;-78
2022/03/22 13:42:15;;;;;;;32.05;3.70;;;22.30;30.80;;;;;;5034108;28;20948;-76
2022/03/22 13:44:46;;;;;;;36.75;3.65;;;22.50;30.70;;;;;;5034932;28;20200;-80
2022/03/22 13:47:29;;;;;;;25.80;3.55;;;22.60;30.00;;;;;;5034081;28;20202;-76
2022/03/22 13:49:57;;;;;;;16.23;3.55;;;22.80;29.50;;;;;;5031859;28;20202;-77
2022/03/22 13:52:30;;;;;;;27.23;3.40;;;23.00;29.20;;;;;;5031844;28;20224;-78
2022/03/22 13:54:59;;;;;;;23.17;3.50;;;23.50;28.80;;;;;;5029849;28;20200;-76
2022/03/22 13:57:36;;;;;;;27.02;3.22;;;24.00;28.10;;;;;;5033157;28;20208;-79
2022/03/22 14:00:08;;;;;;;19.60;3.13;;;24.50;27.60;;;;;;5034790;28;20203;-77
2022/03/22 14:02:38;;;;;;;27.13;2.97;;;25.30;27.30;;;;;;5034434;28;20237;-78
2022/03/22 14:05:21;;;;;;;17.08;3.70;;;26.00;26.70;;;;;;5036471;28;20194;-79
2022/03/22 14:07:52;;;;;;;21.77;3.10;;;26.50;26.50;;;;;;5036688;28;20223;-78
2022/03/22 14:10:21;;;;;;;25.05;3.00;;;26.30;26.30;;;;;;5032609;28;20187;-77
2022/03/22 14:12:58;;;;;;;16.27;3.10;;;26.30;26.40;;;;;;5033072;28;20199;-77
2022/03/22 14:15:45;;;;;;;26.30;3.83;;;26.50;26.60;;;;;;5030321;28;20199;-78
2022/03/22 14:18:13;;;;;;;22.95;3.05;;;27.20;25.90;;;;;;5032716;28;20809;-79
2022/03/22 14:20:42;;;;;;;14.25;2.85;;;27.70;25.70;;;;;;5035057;28;20226;-78
2022/03/22 14:23:14;;;;;;;26.60;3.28;;;28.00;25.20;;;;;;5034177;28;20199;-79
2022/03/22 14:25:54;;;;;;;18.63;2.90;;;28.30;25.30;;;;;;5033448;28;20198;-77
2022/03/22 14:28:36;;;;;;;22.70;3.30;;;28.40;24.90;;;;;;5036076;28;20206;-77
2022/03/22 14:31:08;;;;;;;15.98;3.00;;;28.10;24.80;;;;;;5033810;28;20202;-77
2022/03/22 14:33:39;;;;;;;15.32;2.40;;;27.70;25.20;;;;;;5033924;28;20564;-79
2022/03/22 14:36:08;;;;;;;13.82;2.50;;;27.30;25.90;;;;;;5024931;28;20226;-76
2022/03/22 14:38:43;;;;;;;9.88;2.20;;;26.90;25.80;;;;;;5035231;28;20199;-77
2022/03/22 14:41:25;;;;;;;27.63;2.60;;;26.30;25.60;;;;;;5036077;28;20214;-78
2022/03/22 14:44:00;;;;;;;13.95;2.22;;;25.80;26.10;;;;;;5032925;28;20214;-77
2022/03/22 14:46:31;;;;;;;17.02;2.67;;;25.60;26.80;;;;;;5031532;28;20202;-77
2022/03/22 14:49:07;;;;;;;26.10;3.03;;;25.60;26.80;;;;;;5032941;28;20852;-77
2022/03/22 14:54:24;;;;;;;14.43;1.88;;;25.00;27.00;;;;;;5034109;28;20409;-78